sensor_id;sensor_type;location;lat;lon;timestamp;pressure;altitude;pressure_sealevel;temperature;humidity
59787;BME280;45672;51.612;5.536;2023-07-22T00:01:59;101209.66;;;16.28;77.18
59787;BME280;45672;51.612;5.536;2023-07-22T00:04:25;101208.97;;;16.26;76.84
59787;BME280;45672;51.612;5.536;2023-07-22T00:06:52;101207.34;;;16.25;77.40
59787;BME280;45672;51.612;5.536;2023-07-22T00:09:17;101213.97;;;16.29;77.46
59787;BME280;45672;51.612;5.536;2023-07-22T00:11:42;101212.97;;;16.30;77.06
59787;BME280;45672;51.612;5.536;2023-07-22T00:14:08;101201.84;;;16.18;77.08
59787;BME280;45672;51.612;5.536;2023-07-22T00:16:34;101214.44;;;16.17;77.57
59787;BME280;45672;51.612;5.536;2023-07-22T00:19:00;101217.28;;;16.16;78.07
59787;BME280;45672;51.612;5.536;2023-07-22T00:21:25;101213.34;;;16.12;78.02
59787;BME280;45672;51.612;5.536;2023-07-22T00:23:50;101206.47;;;16.09;78.33
59787;BME280;45672;51.612;5.536;2023-07-22T00:26:16;101206.09;;;16.12;78.38
59787;BME280;45672;51.612;5.536;2023-07-22T00:28:41;101203.25;;;16.14;78.58
59787;BME280;45672;51.612;5.536;2023-07-22T00:31:08;101202.59;;;16.12;78.72
59787;BME280;45672;51.612;5.536;2023-07-22T00:33:33;101216.66;;;16.14;78.80
59787;BME280;45672;51.612;5.536;2023-07-22T00:35:59;101207.59;;;16.15;79.49
59787;BME280;45672;51.612;5.536;2023-07-22T00:38:24;101210.91;;;16.17;80.01
59787;BME280;45672;51.612;5.536;2023-07-22T00:40:50;101215.16;;;16.11;81.42
59787;BME280;45672;51.612;5.536;2023-07-22T00:43:15;101220.16;;;15.99;83.95
59787;BME280;45672;51.612;5.536;2023-07-22T00:45:41;101223.34;;;15.80;87.00
59787;BME280;45672;51.612;5.536;2023-07-22T00:48:08;101223.72;;;15.68;88.64
59787;BME280;45672;51.612;5.536;2023-07-22T00:50:34;101205.25;;;15.50;90.65
59787;BME280;45672;51.612;5.536;2023-07-22T00:53:00;101198.34;;;15.33;93.13
59787;BME280;45672;51.612;5.536;2023-07-22T00:55:25;101198.19;;;15.26;94.35
59787;BME280;45672;51.612;5.536;2023-07-22T00:57:51;101191.06;;;15.19;96.50
59787;BME280;45672;51.612;5.536;2023-07-22T01:00:17;101189.69;;;15.23;96.35
59787;BME280;45672;51.612;5.536;2023-07-22T01:02:43;101195.34;;;15.28;97.14
59787;BME280;45672;51.612;5.536;2023-07-22T01:05:10;101188.97;;;15.29;97.80
59787;BME280;45672;51.612;5.536;2023-07-22T01:07:36;101186.47;;;15.27;97.67
59787;BME280;45672;51.612;5.536;2023-07-22T01:10:03;101188.78;;;15.30;98.44
59787;BME280;45672;51.612;5.536;2023-07-22T01:12:30;101183.06;;;15.33;98.79
59787;BME280;45672;51.612;5.536;2023-07-22T01:14:56;101190.06;;;15.43;98.89
59787;BME280;45672;51.612;5.536;2023-07-22T01:17:21;101177.84;;;15.40;99.57
59787;BME280;45672;51.612;5.536;2023-07-22T01:19:47;101184.16;;;15.47;99.65
59787;BME280;45672;51.612;5.536;2023-07-22T01:22:13;101186.84;;;15.47;99.14
59787;BME280;45672;51.612;5.536;2023-07-22T01:24:39;101175.28;;;15.47;99.16
59787;BME280;45672;51.612;5.536;2023-07-22T01:27:06;101187.50;;;15.49;98.36
59787;BME280;45672;51.612;5.536;2023-07-22T01:29:34;101185.66;;;15.50;98.03
59787;BME280;45672;51.612;5.536;2023-07-22T01:31:59;101188.97;;;15.52;98.56
59787;BME280;45672;51.612;5.536;2023-07-22T01:34:24;101180.78;;;15.54;97.95
59787;BME280;45672;51.612;5.536;2023-07-22T01:36:50;101181.78;;;15.52;98.51
59787;BME280;45672;51.612;5.536;2023-07-22T01:39:16;101175.75;;;15.50;97.74
59787;BME280;45672;51.612;5.536;2023-07-22T01:41:42;101166.03;;;15.49;97.46
59787;BME280;45672;51.612;5.536;2023-07-22T01:44:07;101168.53;;;15.51;98.49
59787;BME280;45672;51.612;5.536;2023-07-22T01:46:39;101160.00;;;15.47;98.19
59787;BME280;45672;51.612;5.536;2023-07-22T01:49:07;101173.41;;;15.47;98.16
59787;BME280;45672;51.612;5.536;2023-07-22T01:51:36;101172.59;;;15.47;98.16
59787;BME280;45672;51.612;5.536;2023-07-22T01:54:05;101168.25;;;15.46;98.39
59787;BME280;45672;51.612;5.536;2023-07-22T01:56:31;101168.78;;;15.41;98.02
59787;BME280;45672;51.612;5.536;2023-07-22T01:58:56;101165.28;;;15.41;98.72
59787;BME280;45672;51.612;5.536;2023-07-22T02:01:21;101165.44;;;15.39;98.12
59787;BME280;45672;51.612;5.536;2023-07-22T02:03:47;101163.97;;;15.37;98.09
59787;BME280;45672;51.612;5.536;2023-07-22T02:06:12;101167.28;;;15.39;98.81
59787;BME280;45672;51.612;5.536;2023-07-22T02:08:38;101169.78;;;15.40;98.68
59787;BME280;45672;51.612;5.536;2023-07-22T02:11:05;101176.34;;;15.38;98.52
59787;BME280;45672;51.612;5.536;2023-07-22T02:13:31;101170.34;;;15.36;98.95
59787;BME280;45672;51.612;5.536;2023-07-22T02:15:57;101162.94;;;15.38;99.14
59787;BME280;45672;51.612;5.536;2023-07-22T02:18:22;101164.78;;;15.37;97.15
59787;BME280;45672;51.612;5.536;2023-07-22T02:20:48;101153.47;;;15.27;96.94
59787;BME280;45672;51.612;5.536;2023-07-22T02:23:13;101151.81;;;15.26;95.88
59787;BME280;45672;51.612;5.536;2023-07-22T02:25:39;101162.34;;;15.27;98.21
59787;BME280;45672;51.612;5.536;2023-07-22T02:28:04;101159.66;;;15.27;97.09
59787;BME280;45672;51.612;5.536;2023-07-22T02:30:29;101160.34;;;15.29;97.49
59787;BME280;45672;51.612;5.536;2023-07-22T02:32:54;101151.75;;;15.34;98.52
59787;BME280;45672;51.612;5.536;2023-07-22T02:35:21;101145.91;;;15.30;98.47
59787;BME280;45672;51.612;5.536;2023-07-22T02:37:46;101150.75;;;15.35;98.99
59787;BME280;45672;51.612;5.536;2023-07-22T02:40:11;101145.25;;;15.28;99.02
59787;BME280;45672;51.612;5.536;2023-07-22T02:42:37;101150.78;;;15.27;99.27
59787;BME280;45672;51.612;5.536;2023-07-22T02:45:03;101144.13;;;15.23;99.19
59787;BME280;45672;51.612;5.536;2023-07-22T02:47:31;101142.81;;;15.19;98.45
59787;BME280;45672;51.612;5.536;2023-07-22T02:49:57;101145.00;;;15.15;98.46
59787;BME280;45672;51.612;5.536;2023-07-22T02:52:22;101144.03;;;15.08;98.17
59787;BME280;45672;51.612;5.536;2023-07-22T02:55:08;101145.06;;;15.07;98.52
59787;BME280;45672;51.612;5.536;2023-07-22T02:57:34;101147.13;;;14.96;98.99
59787;BME280;45672;51.612;5.536;2023-07-22T03:00:00;101149.50;;;14.91;99.74
59787;BME280;45672;51.612;5.536;2023-07-22T03:02:25;101146.69;;;14.85;99.04
59787;BME280;45672;51.612;5.536;2023-07-22T03:04:50;101144.56;;;14.80;99.14
59787;BME280;45672;51.612;5.536;2023-07-22T03:07:16;101150.09;;;14.78;99.88
59787;BME280;45672;51.612;5.536;2023-07-22T03:09:41;101150.94;;;14.71;100.00
59787;BME280;45672;51.612;5.536;2023-07-22T03:12:07;101157.00;;;14.64;100.00
59787;BME280;45672;51.612;5.536;2023-07-22T03:14:32;101156.81;;;14.58;99.31
59787;BME280;45672;51.612;5.536;2023-07-22T03:17:01;101156.69;;;14.51;98.74
59787;BME280;45672;51.612;5.536;2023-07-22T03:19:27;101150.34;;;14.44;97.89
59787;BME280;45672;51.612;5.536;2023-07-22T03:21:52;101157.03;;;14.48;99.25
59787;BME280;45672;51.612;5.536;2023-07-22T03:24:18;101168.91;;;14.45;99.48
59787;BME280;45672;51.612;5.536;2023-07-22T03:26:44;101169.44;;;14.41;100.00
59787;BME280;45672;51.612;5.536;2023-07-22T03:29:09;101164.63;;;14.36;99.80
59787;BME280;45672;51.612;5.536;2023-07-22T03:31:34;101176.16;;;14.37;100.00
59787;BME280;45672;51.612;5.536;2023-07-22T03:33:59;101159.78;;;14.31;99.56
59787;BME280;45672;51.612;5.536;2023-07-22T03:36:25;101166.78;;;14.32;100.00
59787;BME280;45672;51.612;5.536;2023-07-22T03:38:51;101164.47;;;14.29;100.00
59787;BME280;45672;51.612;5.536;2023-07-22T03:41:17;101171.03;;;14.19;99.73
59787;BME280;45672;51.612;5.536;2023-07-22T03:43:42;101167.81;;;14.23;100.00
59787;BME280;45672;51.612;5.536;2023-07-22T03:46:08;101170.84;;;14.20;100.00
59787;BME280;45672;51.612;5.536;2023-07-22T03:48:34;101158.13;;;14.14;100.00
59787;BME280;45672;51.612;5.536;2023-07-22T03:50:59;101149.44;;;14.12;100.00
59787;BME280;45672;51.612;5.536;2023-07-22T03:53:25;101168.19;;;14.20;100.00
59787;BME280;45672;51.612;5.536;2023-07-22T03:55:50;101172.50;;;14.21;100.00
59787;BME280;45672;51.612;5.536;2023-07-22T03:58:15;101169.16;;;14.19;100.00
59787;BME280;45672;51.612;5.536;2023-07-22T04:00:41;101167.31;;;14.20;100.00
59787;BME280;45672;51.612;5.536;2023-07-22T04:03:06;101173.34;;;14.22;100.00
59787;BME280;45672;51.612;5.536;2023-07-22T04:05:31;101169.50;;;14.24;100.00
59787;BME280;45672;51.612;5.536;2023-07-22T04:07:57;101168.19;;;14.20;99.58
59787;BME280;45672;51.612;5.536;2023-07-22T04:10:22;101161.16;;;14.19;100.00
59787;BME280;45672;51.612;5.536;2023-07-22T04:12:48;101173.81;;;14.25;99.99
59787;BME280;45672;51.612;5.536;2023-07-22T04:15:13;101170.97;;;14.27;100.00
59787;BME280;45672;51.612;5.536;2023-07-22T04:17:40;101169.34;;;14.26;99.93
59787;BME280;45672;51.612;5.536;2023-07-22T04:20:06;101170.50;;;14.23;100.00
59787;BME280;45672;51.612;5.536;2023-07-22T04:22:33;101172.50;;;14.21;99.18
59787;BME280;45672;51.612;5.536;2023-07-22T04:24:58;101165.84;;;14.17;98.62
59787;BME280;45672;51.612;5.536;2023-07-22T04:27:26;101171.50;;;14.14;98.46
59787;BME280;45672;51.612;5.536;2023-07-22T04:29:51;101169.53;;;14.08;98.67
59787;BME280;45672;51.612;5.536;2023-07-22T04:32:17;101174.72;;;14.09;99.84
59787;BME280;45672;51.612;5.536;2023-07-22T04:34:42;101168.53;;;14.09;99.20
59787;BME280;45672;51.612;5.536;2023-07-22T04:37:07;101174.53;;;14.11;100.00
59787;BME280;45672;51.612;5.536;2023-07-22T04:39:33;101168.19;;;14.04;98.69
59787;BME280;45672;51.612;5.536;2023-07-22T04:41:58;101179.41;;;14.07;99.65
59787;BME280;45672;51.612;5.536;2023-07-22T04:44:23;101169.06;;;14.04;99.61
59787;BME280;45672;51.612;5.536;2023-07-22T04:46:49;101174.22;;;14.06;98.76
59787;BME280;45672;51.612;5.536;2023-07-22T04:49:14;101167.38;;;14.11;99.15
59787;BME280;45672;51.612;5.536;2023-07-22T04:51:44;101171.69;;;14.21;98.95
59787;BME280;45672;51.612;5.536;2023-07-22T04:54:09;101174.19;;;14.14;98.37
59787;BME280;45672;51.612;5.536;2023-07-22T04:56:35;101169.69;;;14.14;99.27
59787;BME280;45672;51.612;5.536;2023-07-22T04:59:00;101181.69;;;14.27;99.42
59787;BME280;45672;51.612;5.536;2023-07-22T05:01:25;101176.50;;;14.34;99.00
59787;BME280;45672;51.612;5.536;2023-07-22T05:03:51;101176.66;;;14.32;97.14
59787;BME280;45672;51.612;5.536;2023-07-22T05:06:20;101179.00;;;14.35;98.25
59787;BME280;45672;51.612;5.536;2023-07-22T05:08:45;101177.81;;;14.38;96.92
59787;BME280;45672;51.612;5.536;2023-07-22T05:11:10;101175.81;;;14.40;97.96
59787;BME280;45672;51.612;5.536;2023-07-22T05:13:36;101180.09;;;14.57;96.97
59787;BME280;45672;51.612;5.536;2023-07-22T05:16:01;101180.28;;;14.64;96.88
59787;BME280;45672;51.612;5.536;2023-07-22T05:18:26;101189.13;;;14.73;96.47
59787;BME280;45672;51.612;5.536;2023-07-22T05:20:52;101196.19;;;14.65;95.49
59787;BME280;45672;51.612;5.536;2023-07-22T05:23:17;101187.13;;;14.67;95.96
59787;BME280;45672;51.612;5.536;2023-07-22T05:25:42;101182.09;;;14.72;95.89
59787;BME280;45672;51.612;5.536;2023-07-22T05:28:08;101180.72;;;14.76;95.36
59787;BME280;45672;51.612;5.536;2023-07-22T05:30:33;101174.47;;;14.83;95.83
59787;BME280;45672;51.612;5.536;2023-07-22T05:32:58;101165.78;;;14.90;95.75
59787;BME280;45672;51.612;5.536;2023-07-22T05:35:24;101185.78;;;15.02;95.00
59787;BME280;45672;51.612;5.536;2023-07-22T05:37:49;101160.88;;;14.93;94.46
59787;BME280;45672;51.612;5.536;2023-07-22T05:40:15;101180.19;;;15.12;95.30
59787;BME280;45672;51.612;5.536;2023-07-22T05:42:41;101188.38;;;15.19;93.65
59787;BME280;45672;51.612;5.536;2023-07-22T05:45:06;101184.97;;;15.25;94.43
59787;BME280;45672;51.612;5.536;2023-07-22T05:47:32;101183.00;;;15.42;94.33
59787;BME280;45672;51.612;5.536;2023-07-22T05:49:57;101186.13;;;15.54;92.99
59787;BME280;45672;51.612;5.536;2023-07-22T05:52:23;101197.50;;;15.79;92.46
59787;BME280;45672;51.612;5.536;2023-07-22T05:54:48;101177.59;;;15.96;91.24
59787;BME280;45672;51.612;5.536;2023-07-22T05:57:13;101174.53;;;15.99;90.79
59787;BME280;45672;51.612;5.536;2023-07-22T05:59:39;101177.66;;;16.03;90.24
59787;BME280;45672;51.612;5.536;2023-07-22T06:02:06;101174.78;;;16.05;90.20
59787;BME280;45672;51.612;5.536;2023-07-22T06:04:31;101182.97;;;16.11;90.54
59787;BME280;45672;51.612;5.536;2023-07-22T06:06:57;101180.94;;;16.28;90.47
59787;BME280;45672;51.612;5.536;2023-07-22T06:09:23;101179.72;;;16.46;89.81
59787;BME280;45672;51.612;5.536;2023-07-22T06:11:48;101183.81;;;16.57;88.13
59787;BME280;45672;51.612;5.536;2023-07-22T06:14:13;101174.81;;;16.64;87.68
59787;BME280;45672;51.612;5.536;2023-07-22T06:16:39;101175.75;;;16.71;87.57
59787;BME280;45672;51.612;5.536;2023-07-22T06:19:04;101172.50;;;16.76;87.34
59787;BME280;45672;51.612;5.536;2023-07-22T06:21:29;101179.22;;;16.87;86.68
59787;BME280;45672;51.612;5.536;2023-07-22T06:23:55;101171.75;;;16.97;86.07
59787;BME280;45672;51.612;5.536;2023-07-22T06:26:21;101179.63;;;17.20;85.33
59787;BME280;45672;51.612;5.536;2023-07-22T06:28:46;101183.41;;;17.26;83.49
59787;BME280;45672;51.612;5.536;2023-07-22T06:31:12;101180.84;;;17.39;84.34
59787;BME280;45672;51.612;5.536;2023-07-22T06:33:37;101174.53;;;17.47;84.50
59787;BME280;45672;51.612;5.536;2023-07-22T06:36:03;101182.78;;;17.67;83.59
59787;BME280;45672;51.612;5.536;2023-07-22T06:38:28;101163.41;;;17.79;83.28
59787;BME280;45672;51.612;5.536;2023-07-22T06:40:54;101170.84;;;17.98;81.41
59787;BME280;45672;51.612;5.536;2023-07-22T06:43:19;101172.44;;;18.21;80.79
59787;BME280;45672;51.612;5.536;2023-07-22T06:45:44;101163.63;;;18.40;80.33
59787;BME280;45672;51.612;5.536;2023-07-22T06:48:10;101170.41;;;18.30;79.32
59787;BME280;45672;51.612;5.536;2023-07-22T06:50:35;101169.16;;;18.25;80.08
59787;BME280;45672;51.612;5.536;2023-07-22T06:53:00;101154.97;;;18.52;79.18
59787;BME280;45672;51.612;5.536;2023-07-22T06:55:26;101146.84;;;18.87;76.81
59787;BME280;45672;51.612;5.536;2023-07-22T06:57:51;101150.47;;;19.21;76.57
59787;BME280;45672;51.612;5.536;2023-07-22T07:00:17;101156.13;;;19.66;74.06
59787;BME280;45672;51.612;5.536;2023-07-22T07:02:42;101144.88;;;20.09;71.73
59787;BME280;45672;51.612;5.536;2023-07-22T07:05:07;101157.03;;;21.04;68.62
59787;BME280;45672;51.612;5.536;2023-07-22T07:07:33;101161.28;;;21.50;65.28
59787;BME280;45672;51.612;5.536;2023-07-22T07:09:58;101152.38;;;21.75;65.63
59787;BME280;45672;51.612;5.536;2023-07-22T07:12:23;101157.78;;;21.75;64.28
59787;BME280;45672;51.612;5.536;2023-07-22T07:14:53;101163.75;;;21.59;63.78
59787;BME280;45672;51.612;5.536;2023-07-22T07:17:18;101154.97;;;20.99;65.69
59787;BME280;45672;51.612;5.536;2023-07-22T07:19:44;101152.28;;;20.41;68.55
59787;BME280;45672;51.612;5.536;2023-07-22T07:22:09;101163.59;;;19.97;70.80
59787;BME280;45672;51.612;5.536;2023-07-22T07:24:35;101161.09;;;19.56;72.61
59787;BME280;45672;51.612;5.536;2023-07-22T07:27:00;101157.72;;;19.27;74.71
59787;BME280;45672;51.612;5.536;2023-07-22T07:29:25;101138.19;;;19.05;75.81
59787;BME280;45672;51.612;5.536;2023-07-22T07:31:51;101154.16;;;19.13;76.93
59787;BME280;45672;51.612;5.536;2023-07-22T07:34:16;101162.69;;;19.10;76.48
59787;BME280;45672;51.612;5.536;2023-07-22T07:36:41;101159.34;;;19.01;76.60
59787;BME280;45672;51.612;5.536;2023-07-22T07:39:07;101155.59;;;18.95;77.31
59787;BME280;45672;51.612;5.536;2023-07-22T07:41:33;101160.38;;;19.00;78.43
59787;BME280;45672;51.612;5.536;2023-07-22T07:43:58;101148.97;;;18.98;77.71
59787;BME280;45672;51.612;5.536;2023-07-22T07:46:26;101157.91;;;19.05;77.48
59787;BME280;45672;51.612;5.536;2023-07-22T07:48:56;101157.88;;;18.92;77.84
59787;BME280;45672;51.612;5.536;2023-07-22T07:51:22;101158.00;;;18.77;77.97
59787;BME280;45672;51.612;5.536;2023-07-22T07:53:49;101148.44;;;18.68;79.17
59787;BME280;45672;51.612;5.536;2023-07-22T07:56:16;101161.34;;;18.86;78.47
59787;BME280;45672;51.612;5.536;2023-07-22T07:58:42;101156.44;;;19.03;77.64
59787;BME280;45672;51.612;5.536;2023-07-22T08:01:07;101160.63;;;19.19;76.54
59787;BME280;45672;51.612;5.536;2023-07-22T08:03:34;101171.66;;;19.64;75.62
59787;BME280;45672;51.612;5.536;2023-07-22T08:06:01;101165.84;;;20.14;72.50
59787;BME280;45672;51.612;5.536;2023-07-22T08:08:26;101165.50;;;20.69;69.88
59787;BME280;45672;51.612;5.536;2023-07-22T08:11:02;101165.88;;;21.50;68.75
59787;BME280;45672;51.612;5.536;2023-07-22T08:13:27;101171.81;;;21.91;64.00
59787;BME280;45672;51.612;5.536;2023-07-22T08:15:55;101164.28;;;21.67;63.69
59787;BME280;45672;51.612;5.536;2023-07-22T08:18:20;101161.28;;;21.50;66.38
59787;BME280;45672;51.612;5.536;2023-07-22T08:20:45;101163.91;;;21.64;63.93
59787;BME280;45672;51.612;5.536;2023-07-22T08:23:12;101170.66;;;21.80;62.88
59787;BME280;45672;51.612;5.536;2023-07-22T08:25:38;101166.59;;;21.71;63.33
59787;BME280;45672;51.612;5.536;2023-07-22T08:28:03;101172.94;;;21.51;63.17
59787;BME280;45672;51.612;5.536;2023-07-22T08:30:28;101176.06;;;21.23;65.27
59787;BME280;45672;51.612;5.536;2023-07-22T08:32:54;101176.09;;;21.16;65.83
59787;BME280;45672;51.612;5.536;2023-07-22T08:35:19;101173.56;;;21.21;65.37
59787;BME280;45672;51.612;5.536;2023-07-22T08:37:44;101171.53;;;21.16;63.25
59787;BME280;45672;51.612;5.536;2023-07-22T08:40:12;101175.38;;;20.95;65.41
59787;BME280;45672;51.612;5.536;2023-07-22T08:42:38;101173.38;;;21.80;62.55
59787;BME280;45672;51.612;5.536;2023-07-22T08:45:04;101169.97;;;22.84;57.32
59787;BME280;45672;51.612;5.536;2023-07-22T08:47:32;101168.00;;;23.75;54.39
59787;BME280;45672;51.612;5.536;2023-07-22T08:50:01;101167.44;;;23.97;52.73
59787;BME280;45672;51.612;5.536;2023-07-22T08:52:27;101174.84;;;24.90;49.08
59787;BME280;45672;51.612;5.536;2023-07-22T08:54:53;101173.25;;;25.69;47.13
59787;BME280;45672;51.612;5.536;2023-07-22T08:57:19;101174.34;;;26.90;44.64
59787;BME280;45672;51.612;5.536;2023-07-22T08:59:45;101173.53;;;26.90;43.16
59787;BME280;45672;51.612;5.536;2023-07-22T09:02:12;101174.22;;;26.58;44.78
59787;BME280;45672;51.612;5.536;2023-07-22T09:04:39;101169.94;;;25.67;45.91
59787;BME280;45672;51.612;5.536;2023-07-22T09:07:06;101179.59;;;25.11;46.39
59787;BME280;45672;51.612;5.536;2023-07-22T09:09:32;101169.19;;;24.80;46.85
59787;BME280;45672;51.612;5.536;2023-07-22T09:11:58;101178.00;;;24.46;47.04
59787;BME280;45672;51.612;5.536;2023-07-22T09:14:25;101171.91;;;23.80;48.85
59787;BME280;45672;51.612;5.536;2023-07-22T09:16:51;101167.63;;;23.48;50.80
59787;BME280;45672;51.612;5.536;2023-07-22T09:19:16;101168.38;;;23.25;50.41
59787;BME280;45672;51.612;5.536;2023-07-22T09:21:42;101173.53;;;22.84;51.31
59787;BME280;45672;51.612;5.536;2023-07-22T09:24:24;101164.06;;;22.87;52.88
59787;BME280;45672;51.612;5.536;2023-07-22T09:26:50;101158.84;;;22.73;53.00
59787;BME280;45672;51.612;5.536;2023-07-22T09:29:16;101167.44;;;23.01;53.22
59787;BME280;45672;51.612;5.536;2023-07-22T09:31:50;101171.16;;;22.88;51.50
59787;BME280;45672;51.612;5.536;2023-07-22T09:34:15;101159.03;;;22.90;52.51
59787;BME280;45672;51.612;5.536;2023-07-22T09:39:16;101155.81;;;23.43;50.37
59787;BME280;45672;51.612;5.536;2023-07-22T09:41:41;101157.56;;;23.61;48.77
59787;BME280;45672;51.612;5.536;2023-07-22T09:44:09;101156.38;;;23.33;50.11
59787;BME280;45672;51.612;5.536;2023-07-22T09:46:36;101153.97;;;23.24;50.46
59787;BME280;45672;51.612;5.536;2023-07-22T09:49:06;101147.38;;;23.02;51.05
59787;BME280;45672;51.612;5.536;2023-07-22T09:51:37;101154.47;;;22.72;50.43
59787;BME280;45672;51.612;5.536;2023-07-22T09:54:04;101159.75;;;22.67;51.27
59787;BME280;45672;51.612;5.536;2023-07-22T09:56:30;101154.47;;;22.54;51.90
59787;BME280;45672;51.612;5.536;2023-07-22T09:58:58;101143.72;;;22.66;52.68
59787;BME280;45672;51.612;5.536;2023-07-22T10:01:25;101154.38;;;22.79;52.88
59787;BME280;45672;51.612;5.536;2023-07-22T10:03:55;101149.56;;;22.81;52.62
59787;BME280;45672;51.612;5.536;2023-07-22T10:06:24;101142.56;;;22.73;52.76
59787;BME280;45672;51.612;5.536;2023-07-22T10:08:52;101145.34;;;22.67;51.97
59787;BME280;45672;51.612;5.536;2023-07-22T10:11:18;101147.22;;;22.85;52.38
59787;BME280;45672;51.612;5.536;2023-07-22T10:13:44;101144.56;;;22.78;52.58
59787;BME280;45672;51.612;5.536;2023-07-22T10:16:10;101146.06;;;22.44;53.33
59787;BME280;45672;51.612;5.536;2023-07-22T10:18:35;101148.16;;;22.23;54.53
59787;BME280;45672;51.612;5.536;2023-07-22T10:21:02;101151.03;;;21.84;55.45
59787;BME280;45672;51.612;5.536;2023-07-22T10:23:29;101149.38;;;21.83;57.33
59787;BME280;45672;51.612;5.536;2023-07-22T10:25:56;101152.19;;;21.70;57.75
59787;BME280;45672;51.612;5.536;2023-07-22T10:28:23;101149.56;;;22.26;56.49
59787;BME280;45672;51.612;5.536;2023-07-22T10:30:49;101155.59;;;22.65;54.27
59787;BME280;45672;51.612;5.536;2023-07-22T10:33:16;101143.78;;;22.89;53.01
59787;BME280;45672;51.612;5.536;2023-07-22T10:35:43;101142.56;;;23.34;51.92
59787;BME280;45672;51.612;5.536;2023-07-22T10:38:14;101146.09;;;23.35;51.29
59787;BME280;45672;51.612;5.536;2023-07-22T10:40:51;101149.53;;;23.42;51.64
59787;BME280;45672;51.612;5.536;2023-07-22T10:43:18;101137.47;;;23.26;50.33
59787;BME280;45672;51.612;5.536;2023-07-22T10:45:53;101139.78;;;23.22;50.71
59787;BME280;45672;51.612;5.536;2023-07-22T10:48:19;101140.88;;;22.72;52.18
59787;BME280;45672;51.612;5.536;2023-07-22T11:11:54;101137.66;;;22.08;49.58
59787;BME280;45672;51.612;5.536;2023-07-22T11:14:23;101138.59;;;22.20;49.94
59787;BME280;45672;51.612;5.536;2023-07-22T11:16:49;101134.84;;;22.40;49.79
59787;BME280;45672;51.612;5.536;2023-07-22T11:19:19;101127.16;;;22.86;49.71
59787;BME280;45672;51.612;5.536;2023-07-22T11:21:46;101129.09;;;23.39;48.09
59787;BME280;45672;51.612;5.536;2023-07-22T11:24:12;101114.59;;;23.69;45.21
59787;BME280;45672;51.612;5.536;2023-07-22T11:26:38;101123.41;;;23.17;46.51
59787;BME280;45672;51.612;5.536;2023-07-22T11:29:05;101117.91;;;22.75;47.89
59787;BME280;45672;51.612;5.536;2023-07-22T11:31:35;101122.09;;;22.89;46.86
59787;BME280;45672;51.612;5.536;2023-07-22T11:34:12;101120.50;;;23.00;48.04
59787;BME280;45672;51.612;5.536;2023-07-22T11:36:37;101107.34;;;23.16;47.63
59787;BME280;45672;51.612;5.536;2023-07-22T11:39:04;101113.00;;;23.14;47.16
59787;BME280;45672;51.612;5.536;2023-07-22T11:41:30;101104.66;;;23.39;46.65
59787;BME280;45672;51.612;5.536;2023-07-22T11:44:02;101111.16;;;23.38;45.31
59787;BME280;45672;51.612;5.536;2023-07-22T11:46:30;101112.94;;;23.33;46.50
59787;BME280;45672;51.612;5.536;2023-07-22T11:48:55;101103.66;;;23.10;44.96
59787;BME280;45672;51.612;5.536;2023-07-22T11:51:24;101110.44;;;23.43;44.18
59787;BME280;45672;51.612;5.536;2023-07-22T11:53:51;101106.22;;;23.47;43.83
59787;BME280;45672;51.612;5.536;2023-07-22T11:56:21;101114.72;;;23.63;44.85
59787;BME280;45672;51.612;5.536;2023-07-22T11:58:51;101112.59;;;23.41;44.92
59787;BME280;45672;51.612;5.536;2023-07-22T12:01:17;101109.59;;;23.31;45.23
59787;BME280;45672;51.612;5.536;2023-07-22T12:03:43;101106.91;;;23.43;45.48
59787;BME280;45672;51.612;5.536;2023-07-22T12:06:09;101109.16;;;23.57;44.85
59787;BME280;45672;51.612;5.536;2023-07-22T12:08:36;101106.00;;;23.72;44.63
59787;BME280;45672;51.612;5.536;2023-07-22T12:11:01;101100.91;;;23.76;43.32
59787;BME280;45672;51.612;5.536;2023-07-22T12:13:26;101088.38;;;23.75;42.90
59787;BME280;45672;51.612;5.536;2023-07-22T12:16:02;101088.28;;;23.70;43.06
59787;BME280;45672;51.612;5.536;2023-07-22T12:18:43;101087.94;;;23.90;43.78
59787;BME280;45672;51.612;5.536;2023-07-22T12:21:09;101089.09;;;23.70;43.50
59787;BME280;45672;51.612;5.536;2023-07-22T12:23:36;101084.25;;;23.37;45.28
59787;BME280;45672;51.612;5.536;2023-07-22T12:26:02;101071.63;;;23.43;44.68
59787;BME280;45672;51.612;5.536;2023-07-22T12:28:27;101074.25;;;23.07;44.82
59787;BME280;45672;51.612;5.536;2023-07-22T12:30:52;101074.78;;;23.16;45.68
59787;BME280;45672;51.612;5.536;2023-07-22T12:33:18;101074.66;;;23.22;44.41
59787;BME280;45672;51.612;5.536;2023-07-22T12:35:43;101080.44;;;23.38;43.94
59787;BME280;45672;51.612;5.536;2023-07-22T12:38:08;101077.53;;;23.51;44.38
59787;BME280;45672;51.612;5.536;2023-07-22T12:40:34;101083.28;;;23.55;43.14
59787;BME280;45672;51.612;5.536;2023-07-22T12:42:59;101072.81;;;23.47;42.00
59787;BME280;45672;51.612;5.536;2023-07-22T12:45:24;101069.81;;;23.36;42.16
59787;BME280;45672;51.612;5.536;2023-07-22T12:47:50;101067.72;;;23.50;41.68
59787;BME280;45672;51.612;5.536;2023-07-22T12:50:16;101070.81;;;23.54;41.84
59787;BME280;45672;51.612;5.536;2023-07-22T12:52:41;101068.31;;;23.52;42.10
59787;BME280;45672;51.612;5.536;2023-07-22T12:55:06;101063.00;;;23.46;41.71
59787;BME280;45672;51.612;5.536;2023-07-22T12:57:32;101074.34;;;23.43;42.42
59787;BME280;45672;51.612;5.536;2023-07-22T12:59:57;101073.72;;;23.40;42.13
59787;BME280;45672;51.612;5.536;2023-07-22T13:02:23;101057.66;;;23.51;43.02
59787;BME280;45672;51.612;5.536;2023-07-22T13:04:48;101067.94;;;23.61;42.42
59787;BME280;45672;51.612;5.536;2023-07-22T13:07:13;101063.25;;;23.44;43.21
59787;BME280;45672;51.612;5.536;2023-07-22T13:09:39;101068.66;;;23.44;43.19